Paradise, Pennsylvania
Current Conditions -  °F | °C
As of 1:53 AM on Sunday 26 Oct 2014 (Local Time) from KLNS Reporting Station
Overcast Overcast  
Wind Chill: 59°   Ceiling: 7000
Heat Index: 59°   Visibility: 10mi
Dew Point: 48°   Wind: 0mph
Humidity: 67%   Direction: NA
Pressure: 29.62"   Gusts: NA
Location:  40.01°N, 76.12°W
Report Text: KLNS 260553Z AUTO 00000KT 10SM OVC070 15/09 A2962 RMK AO2 SLP029 60000 T01500089 10161 20128 58006
Loading
Personal Weather Stations






























Interactive Weather Map
Tropical Storm Tracking
New forecast layout! Learn more

10-Day Weather Forecast

Advertisements
Track Severe Weather on mobile